createdAt,value
2023-02-04T00:00:20.449Z,96864.84
2023-02-04T00:02:51.300Z,96869.16
2023-02-04T00:05:19.236Z,96873.47
2023-02-04T00:07:46.372Z,96874.00
2023-02-04T00:10:13.602Z,96874.75
2023-02-04T00:12:40.774Z,96875.88
2023-02-04T00:15:08.092Z,96881.78
2023-02-04T00:17:35.826Z,96891.44
2023-02-04T00:20:02.874Z,96889.84
2023-02-04T00:22:29.841Z,96891.66
2023-02-04T00:24:57.001Z,96890.00
2023-02-04T00:27:24.188Z,96892.63
2023-02-04T00:29:51.185Z,96893.44
2023-02-04T00:32:18.388Z,96904.59
2023-02-04T00:34:45.537Z,96903.75
2023-02-04T00:37:12.577Z,96901.03
2023-02-04T00:39:39.653Z,96914.06
2023-02-04T00:42:07.506Z,96907.97
2023-02-04T00:44:36.859Z,96905.63
2023-02-04T00:47:05.004Z,96907.97
2023-02-04T00:49:33.617Z,96916.69
2023-02-04T00:52:01.007Z,96914.34
2023-02-04T00:54:28.709Z,96919.41
2023-02-04T00:56:56.194Z,96927.97
2023-02-04T00:59:23.483Z,96929.53
2023-02-04T01:01:51.998Z,96917.97
2023-02-04T01:04:19.348Z,96925.75
2023-02-04T01:06:46.463Z,96924.81
2023-02-04T01:09:13.713Z,96930.19
2023-02-04T01:11:40.787Z,96938.81
2023-02-04T01:14:07.887Z,96939.75
2023-02-04T01:16:34.893Z,96945.63
2023-02-04T01:19:01.895Z,96946.38
2023-02-04T01:21:29.058Z,96945.34
2023-02-04T01:23:56.211Z,96954.59
2023-02-04T01:26:23.519Z,96956.09
2023-02-04T01:28:50.941Z,96961.25
2023-02-04T01:31:18.371Z,96959.34
2023-02-04T01:33:45.874Z,96962.75
2023-02-04T01:36:13.313Z,96956.81
2023-02-04T01:38:40.386Z,96961.16
2023-02-04T01:41:07.722Z,96962.22
2023-02-04T01:43:34.970Z,96965.56
2023-02-04T01:46:02.977Z,96964.72
2023-02-04T01:48:30.845Z,96975.97
2023-02-04T01:51:07.837Z,96970.72
2023-02-04T01:53:36.254Z,96962.09
2023-02-04T01:56:17.593Z,96963.78
2023-02-04T01:58:45.403Z,96979.00
2023-02-04T02:01:34.007Z,96983.72
2023-02-04T02:04:01.751Z,96988.34
2023-02-04T02:06:29.901Z,96988.53
2023-02-04T02:08:58.692Z,96999.03
2023-02-04T02:11:27.202Z,96998.94
2023-02-04T02:13:54.730Z,96990.97
2023-02-04T02:16:22.527Z,97002.34
2023-02-04T02:18:50.025Z,96999.13
2023-02-04T02:21:21.735Z,97001.03
2023-02-04T02:23:53.263Z,97007.16
2023-02-04T02:26:22.016Z,97006.31
2023-02-04T02:28:50.068Z,97015.97
2023-02-04T02:31:20.752Z,97019.72
2023-02-04T02:33:48.645Z,97023.50
2023-02-04T02:36:17.457Z,97027.25
2023-02-04T02:38:44.870Z,97023.13
2023-02-04T02:41:12.056Z,97014.41
2023-02-04T02:43:39.977Z,97012.72
2023-02-04T02:46:10.707Z,97016.28
2023-02-04T02:48:37.926Z,97019.75
2023-02-04T02:51:04.951Z,97021.53
2023-02-04T02:53:32.105Z,97023.69
2023-02-04T02:55:59.329Z,97031.16
2023-02-04T02:58:35.136Z,97030.03
2023-02-04T03:01:06.461Z,97028.16
2023-02-04T03:03:51.275Z,97026.47
2023-02-04T03:06:22.344Z,97031.66
2023-02-04T03:08:52.902Z,97029.97
2023-02-04T03:11:20.062Z,97038.69
2023-02-04T03:13:49.252Z,97056.13
2023-02-04T03:16:17.933Z,97063.63
2023-02-04T03:18:45.208Z,97049.59
2023-02-04T03:21:12.767Z,97061.06
2023-02-04T03:23:40.214Z,97062.66
2023-02-04T03:26:07.618Z,97063.13
2023-02-04T03:28:34.744Z,97062.75
2023-02-04T03:31:02.473Z,97073.72
2023-02-04T03:33:32.019Z,97081.38
2023-02-04T03:35:59.437Z,97093.78
2023-02-04T03:38:27.427Z,97094.88
2023-02-04T03:40:54.604Z,97092.53
2023-02-04T03:43:21.562Z,97097.88
2023-02-04T03:45:48.680Z,97100.66
2023-02-04T03:48:16.060Z,97105.16
2023-02-04T03:50:43.168Z,97123.66
2023-02-04T03:53:10.792Z,97124.56
2023-02-04T03:55:37.998Z,97127.19
2023-02-04T03:58:05.490Z,97131.50
2023-02-04T04:00:33.217Z,97138.34
2023-02-04T04:03:00.731Z,97132.06
2023-02-04T04:05:28.926Z,97132.56
2023-02-04T04:07:56.434Z,97121.59
2023-02-04T04:10:23.569Z,97122.38
2023-02-04T04:12:50.642Z,97126.59
2023-02-04T04:15:18.213Z,97138.59
2023-02-04T04:17:45.451Z,97141.88
2023-02-04T04:20:13.012Z,97137.28
2023-02-04T04:22:40.111Z,97145.00
2023-02-04T04:25:08.181Z,97136.94
2023-02-04T04:27:35.629Z,97140.41
2023-02-04T04:30:03.409Z,97139.75
2023-02-04T04:32:30.413Z,97140.44
2023-02-04T04:34:57.496Z,97137.63
2023-02-04T04:37:24.514Z,97132.31
2023-02-04T04:39:51.561Z,97144.31
2023-02-04T04:42:18.701Z,97143.06
2023-02-04T04:44:45.993Z,97145.94
2023-02-04T04:47:13.096Z,97142.47
2023-02-04T04:49:40.088Z,97158.03
2023-02-04T04:52:07.200Z,97160.22
2023-02-04T04:54:34.214Z,97163.41
2023-02-04T04:57:01.651Z,97176.94
2023-02-04T04:59:28.656Z,97179.31
2023-02-04T05:01:55.774Z,97185.81
2023-02-04T05:04:22.941Z,97188.06
2023-02-04T05:06:50.176Z,97192.03
2023-02-04T05:09:17.706Z,97190.00
2023-02-04T05:11:44.833Z,97188.00
2023-02-04T05:14:11.937Z,97192.25
2023-02-04T05:16:39.138Z,97193.19
2023-02-04T05:19:06.166Z,97201.34
2023-02-04T05:21:33.302Z,97201.19
2023-02-04T05:24:00.509Z,97198.16
2023-02-04T05:26:30.838Z,97205.81
2023-02-04T05:29:00.756Z,97209.06
2023-02-04T05:31:27.959Z,97218.09
2023-02-04T05:33:55.234Z,97232.19
2023-02-04T05:36:25.728Z,97215.59
2023-02-04T05:38:52.756Z,97223.34
2023-02-04T05:41:19.871Z,97225.81
2023-02-04T05:43:46.768Z,97230.97
2023-02-04T05:46:13.861Z,97238.50
2023-02-04T05:48:40.954Z,97244.34
2023-02-04T05:51:08.033Z,97253.72
2023-02-04T05:53:35.125Z,97256.19
2023-02-04T05:56:02.532Z,97265.63
2023-02-04T05:58:33.771Z,97269.22
2023-02-04T06:01:04.202Z,97277.59
2023-02-04T06:03:32.915Z,97273.94
2023-02-04T06:06:00.136Z,97285.38
2023-02-04T06:08:27.235Z,97295.78
2023-02-04T06:10:54.286Z,97297.31
2023-02-04T06:13:21.356Z,97291.97
2023-02-04T06:15:48.487Z,97300.00
2023-02-04T06:18:15.765Z,97300.88
2023-02-04T06:20:42.826Z,97297.16
2023-02-04T06:23:09.913Z,97308.31
2023-02-04T06:25:37.005Z,97313.56
2023-02-04T06:28:04.439Z,97313.63
2023-02-04T06:30:31.989Z,97323.13
2023-02-04T06:32:59.411Z,97324.81
2023-02-04T06:35:26.443Z,97325.75
2023-02-04T06:37:53.388Z,97327.53
2023-02-04T06:40:20.368Z,97318.81
2023-02-04T06:42:47.449Z,97332.50
2023-02-04T06:45:14.485Z,97315.94
2023-02-04T06:47:41.786Z,97323.81
2023-02-04T06:50:09.424Z,97322.13
2023-02-04T06:52:37.499Z,97322.13
2023-02-04T06:55:04.742Z,97321.25
2023-02-04T06:57:31.744Z,97326.44
2023-02-04T06:59:58.873Z,97330.06
2023-02-04T07:02:25.883Z,97328.09
2023-02-04T07:04:52.894Z,97341.16
2023-02-04T07:07:19.943Z,97339.44
2023-02-04T07:09:47.044Z,97338.28
2023-02-04T07:12:16.142Z,97351.06
2023-02-04T07:14:43.467Z,97357.81
2023-02-04T07:17:10.668Z,97361.22
2023-02-04T07:19:37.733Z,97361.81
2023-02-04T07:22:04.904Z,97365.00
2023-02-04T07:24:32.107Z,97367.72
2023-02-04T07:27:00.320Z,97363.06
2023-02-04T07:29:28.765Z,97367.34
2023-02-04T07:31:56.048Z,97367.97
2023-02-04T07:34:23.101Z,97376.25
2023-02-04T07:36:50.164Z,97383.78
2023-02-04T07:39:17.291Z,97391.41
2023-02-04T07:41:44.492Z,97387.41
2023-02-04T07:44:14.167Z,97393.91
2023-02-04T07:46:41.279Z,97406.78
2023-02-04T07:49:08.484Z,97404.72
2023-02-04T07:51:35.726Z,97413.00
2023-02-04T07:54:02.887Z,97405.94
2023-02-04T07:56:32.984Z,97416.22
2023-02-04T07:59:00.001Z,97418.69
2023-02-04T08:01:27.149Z,97417.44
2023-02-04T08:03:54.242Z,97419.00
2023-02-04T08:06:24.468Z,97426.81
2023-02-04T08:08:51.400Z,97438.47
2023-02-04T08:11:18.381Z,97424.19
2023-02-04T08:13:45.458Z,97438.94
2023-02-04T08:16:12.756Z,97448.34
2023-02-04T08:18:39.818Z,97448.09
2023-02-04T08:21:06.878Z,97447.81
2023-02-04T08:23:33.827Z,97446.03
2023-02-04T08:26:00.980Z,97446.88
2023-02-04T08:28:28.156Z,97448.53
2023-02-04T08:30:56.463Z,97446.97
2023-02-04T08:33:23.624Z,97450.66
2023-02-04T08:35:50.770Z,97464.34
2023-02-04T08:38:17.856Z,97470.56
2023-02-04T08:40:45.055Z,97475.84
2023-02-04T08:43:12.054Z,97474.25
2023-02-04T08:45:39.313Z,97475.44
2023-02-04T08:48:07.950Z,97477.56
2023-02-04T08:50:35.069Z,97470.19
2023-02-04T08:53:02.073Z,97465.84
2023-02-04T08:55:29.106Z,97470.34
2023-02-04T08:57:56.079Z,97471.72
2023-02-04T09:00:23.300Z,97480.19
2023-02-04T09:02:50.261Z,97470.19
2023-02-04T09:05:17.374Z,97482.38
2023-02-04T09:07:44.375Z,97475.66
2023-02-04T09:10:11.536Z,97477.53
2023-02-04T09:12:38.560Z,97487.31
2023-02-04T09:15:06.188Z,97484.56
2023-02-04T09:17:34.148Z,97489.88
2023-02-04T09:20:01.326Z,97488.25
2023-02-04T09:22:28.323Z,97499.44
2023-02-04T09:24:55.369Z,97498.38
2023-02-04T09:27:22.434Z,97505.13
2023-02-04T09:29:49.560Z,97501.09
2023-02-04T09:32:16.856Z,97510.94
2023-02-04T09:34:43.813Z,97511.03
2023-02-04T09:37:10.884Z,97513.75
2023-02-04T09:39:37.916Z,97534.72
2023-02-04T09:42:05.083Z,97548.53
2023-02-04T09:44:32.316Z,97553.06
2023-02-04T09:47:01.348Z,97558.25
2023-02-04T09:49:28.938Z,97575.94
2023-02-04T09:51:56.645Z,97572.84
2023-02-04T09:54:25.497Z,97575.38
2023-02-04T09:56:52.888Z,97579.94
2023-02-04T09:59:23.309Z,97579.28
2023-02-04T10:02:01.471Z,97585.75
2023-02-04T10:04:29.410Z,97583.81
2023-02-04T10:07:00.971Z,97583.56
2023-02-04T10:09:28.179Z,97589.50
2023-02-04T10:11:55.378Z,97592.41
2023-02-04T10:14:23.744Z,97595.28
2023-02-04T10:16:59.387Z,97596.06
2023-02-04T10:19:29.319Z,97606.59
2023-02-04T10:21:57.822Z,97604.38
2023-02-04T10:24:27.081Z,97599.69
2023-02-04T10:26:54.998Z,97602.00
2023-02-04T10:29:26.403Z,97592.69
2023-02-04T10:31:53.743Z,97590.53
2023-02-04T10:34:23.341Z,97592.91
2023-02-04T10:36:56.083Z,97592.91
2023-02-04T10:39:29.206Z,97593.09
2023-02-04T10:42:01.135Z,97597.06
2023-02-04T10:44:33.364Z,97599.84
2023-02-04T10:47:09.688Z,97606.13
2023-02-04T10:49:37.848Z,97601.06
2023-02-04T10:52:18.182Z,97604.78
2023-02-04T10:54:45.268Z,97613.78
2023-02-04T10:57:19.469Z,97601.94
2023-02-04T10:59:55.203Z,97597.75
2023-02-04T11:02:42.618Z,97595.97
2023-02-04T11:05:33.067Z,97597.06
2023-02-04T11:08:00.459Z,97596.91
2023-02-04T11:10:34.932Z,97589.63
2023-02-04T11:13:06.852Z,97589.06
2023-02-04T11:15:39.295Z,97597.06
2023-02-04T11:18:10.429Z,97597.06
2023-02-04T11:20:40.448Z,97594.31
2023-02-04T11:23:27.426Z,97596.66
2023-02-04T11:26:11.480Z,97590.19
2023-02-04T11:28:41.209Z,97585.41
2023-02-04T11:31:34.530Z,97584.03
2023-02-04T11:34:16.736Z,97580.72
2023-02-04T11:37:12.530Z,97584.25
2023-02-04T11:39:45.259Z,97580.50
2023-02-04T11:42:18.516Z,97584.59
2023-02-04T11:45:08.938Z,97591.69
2023-02-04T11:47:37.183Z,97586.28
2023-02-04T11:50:25.355Z,97588.03
2023-02-04T11:52:54.856Z,97589.91
2023-02-04T11:55:21.893Z,97583.28
2023-02-04T11:57:53.640Z,97577.06
2023-02-04T12:00:32.831Z,97576.41
2023-02-04T12:03:12.184Z,97571.97
2023-02-04T12:05:44.760Z,97571.94
2023-02-04T12:08:23.937Z,97566.44
2023-02-04T12:11:06.607Z,97572.94
2023-02-04T12:13:35.278Z,97573.13
2023-02-04T12:16:07.663Z,97570.31
2023-02-04T12:18:35.232Z,97560.53
2023-02-04T12:21:03.081Z,97567.47
2023-02-04T12:23:30.847Z,97560.03
2023-02-04T12:25:58.067Z,97567.59
2023-02-04T12:28:25.937Z,97558.25
2023-02-04T12:30:52.984Z,97552.81
2023-02-04T12:33:20.313Z,97561.59
2023-02-04T12:35:47.333Z,97563.19
2023-02-04T12:38:14.672Z,97567.03
2023-02-04T12:40:42.259Z,97565.31
2023-02-04T12:43:09.475Z,97569.00
2023-02-04T12:45:36.644Z,97573.94
2023-02-04T12:48:04.141Z,97574.34
2023-02-04T12:50:32.289Z,97564.06
2023-02-04T12:53:00.299Z,97554.44
2023-02-04T12:55:30.135Z,97556.72
2023-02-04T12:57:57.402Z,97562.94
2023-02-04T13:00:24.885Z,97561.38
2023-02-04T13:02:51.995Z,97560.38
2023-02-04T13:05:19.166Z,97559.59
2023-02-04T13:07:46.382Z,97559.69
2023-02-04T13:10:14.794Z,97562.47
2023-02-04T13:12:42.125Z,97567.72
2023-02-04T13:15:11.092Z,97566.31
2023-02-04T13:17:38.113Z,97571.59
2023-02-04T13:20:06.222Z,97565.94
2023-02-04T13:22:33.346Z,97576.78
2023-02-04T13:25:01.779Z,97579.72
2023-02-04T13:27:32.079Z,97580.75
2023-02-04T13:29:59.425Z,97594.50
2023-02-04T13:32:26.448Z,97586.22
2023-02-04T13:34:53.451Z,97593.84
2023-02-04T13:37:20.434Z,97587.06
2023-02-04T13:39:47.565Z,97598.72
2023-02-04T13:42:14.596Z,97596.94
2023-02-04T13:44:41.881Z,97602.97
2023-02-04T13:47:09.068Z,97598.25
2023-02-04T13:49:36.324Z,97600.53
2023-02-04T13:52:03.438Z,97612.47
2023-02-04T13:54:30.665Z,97608.63
2023-02-04T13:56:57.658Z,97621.97
2023-02-04T13:59:24.670Z,97625.00
2023-02-04T14:01:51.806Z,97623.47
2023-02-04T14:04:18.879Z,97624.03
2023-02-04T14:06:45.881Z,97628.56
2023-02-04T14:09:13.473Z,97630.34
2023-02-04T14:11:40.927Z,97632.78
2023-02-04T14:14:08.088Z,97634.94
2023-02-04T14:16:37.694Z,97627.13
2023-02-04T14:19:06.359Z,97635.47
2023-02-04T14:21:33.587Z,97644.69
2023-02-04T14:24:01.282Z,97641.63
2023-02-04T14:26:28.317Z,97649.38
2023-02-04T14:28:55.452Z,97651.13
2023-02-04T14:31:23.648Z,97650.59
2023-02-04T14:33:54.068Z,97653.25
2023-02-04T14:36:22.664Z,97649.00
2023-02-04T14:38:49.821Z,97651.97
2023-02-04T14:41:20.244Z,97653.59
2023-02-04T14:43:47.715Z,97657.13
2023-02-04T14:46:14.901Z,97655.16
2023-02-04T14:48:41.955Z,97651.63
2023-02-04T14:51:09.258Z,97651.38
2023-02-04T14:53:36.173Z,97656.09
2023-02-04T14:56:03.328Z,97654.53
2023-02-04T14:58:30.545Z,97656.19
2023-02-04T15:00:57.817Z,97661.97
2023-02-04T15:03:24.900Z,97651.00
2023-02-04T15:05:51.959Z,97664.34
2023-02-04T15:08:18.969Z,97663.69
2023-02-04T15:10:45.974Z,97670.09
2023-02-04T15:13:13.230Z,97669.69
2023-02-04T15:15:40.452Z,97662.53
2023-02-04T15:18:07.486Z,97660.13
2023-02-04T15:20:34.768Z,97666.63
2023-02-04T15:23:02.017Z,97671.34
2023-02-04T15:25:29.200Z,97671.91
2023-02-04T15:27:56.285Z,97668.75
2023-02-04T15:30:23.443Z,97684.91
2023-02-04T15:32:50.453Z,97682.69
2023-02-04T15:35:17.497Z,97689.84
2023-02-04T15:37:44.525Z,97694.38
2023-02-04T15:40:12.383Z,97696.34
2023-02-04T15:42:39.937Z,97699.94
2023-02-04T15:45:07.672Z,97706.19
2023-02-04T15:47:34.872Z,97706.50
2023-02-04T15:50:02.026Z,97701.78
2023-02-04T15:52:29.458Z,97711.03
2023-02-04T15:54:56.681Z,97709.91
2023-02-04T15:57:23.826Z,97713.22
2023-02-04T15:59:50.947Z,97711.25
2023-02-04T16:02:18.070Z,97717.97
2023-02-04T16:04:45.599Z,97720.31
2023-02-04T16:07:13.052Z,97726.97
2023-02-04T16:09:40.251Z,97719.56
2023-02-04T16:12:07.662Z,97725.44
2023-02-04T16:14:34.701Z,97718.09
2023-02-04T16:17:02.095Z,97723.91
2023-02-04T16:19:29.800Z,97725.31
2023-02-04T16:21:56.971Z,97726.66
2023-02-04T16:24:24.051Z,97728.00
2023-02-04T16:26:51.187Z,97745.84
2023-02-04T16:29:18.221Z,97740.94
2023-02-04T16:31:45.457Z,97748.31
2023-02-04T16:34:12.437Z,97755.56
2023-02-04T16:36:39.716Z,97757.38
2023-02-04T16:39:06.717Z,97760.00
2023-02-04T16:41:33.967Z,97765.09
2023-02-04T16:44:04.078Z,97770.09
2023-02-04T16:46:34.081Z,97771.47
2023-02-04T16:49:01.584Z,97773.72
2023-02-04T16:51:29.005Z,97776.94
2023-02-04T16:53:56.022Z,97777.53
2023-02-04T16:56:23.274Z,97780.78
2023-02-04T16:58:50.363Z,97776.25
2023-02-04T17:01:17.611Z,97772.31
2023-02-04T17:03:44.766Z,97776.53
2023-02-04T17:06:16.532Z,97785.84
2023-02-04T17:08:43.620Z,97784.75
2023-02-04T17:11:29.406Z,97798.44
2023-02-04T17:13:57.219Z,97794.69
2023-02-04T17:16:27.989Z,97792.75
2023-02-04T17:18:55.409Z,97795.19
2023-02-04T17:21:24.726Z,97795.94
2023-02-04T17:23:51.764Z,97797.47
2023-02-04T17:26:19.828Z,97801.88
2023-02-04T17:28:47.052Z,97800.09
2023-02-04T17:31:14.321Z,97801.00
2023-02-04T17:33:41.414Z,97797.72
2023-02-04T17:36:09.105Z,97800.63
2023-02-04T17:38:36.114Z,97802.78
2023-02-04T17:41:03.226Z,97803.16
2023-02-04T17:43:30.989Z,97805.34
2023-02-04T17:45:58.149Z,97815.38
2023-02-04T17:48:25.335Z,97814.78
2023-02-04T17:50:53.781Z,97810.66
2023-02-04T17:53:21.124Z,97814.38
2023-02-04T17:55:48.218Z,97808.59
2023-02-04T17:58:27.486Z,97815.72
2023-02-04T18:00:57.996Z,97816.88
2023-02-04T18:03:28.773Z,97823.31
2023-02-04T18:05:57.863Z,97826.28
2023-02-04T18:08:35.313Z,97825.88
2023-02-04T18:11:02.458Z,97825.38
2023-02-04T18:13:35.142Z,97830.94
2023-02-04T18:16:12.056Z,97823.50
2023-02-04T18:18:40.432Z,97824.69
2023-02-04T18:21:25.897Z,97820.59
2023-02-04T18:24:11.409Z,97826.84
2023-02-04T18:26:45.078Z,97824.41
2023-02-04T18:29:21.128Z,97827.34
2023-02-04T18:31:55.941Z,97822.25
2023-02-04T18:34:36.466Z,97814.66
2023-02-04T18:37:25.131Z,97813.25
2023-02-04T18:39:57.850Z,97820.47
2023-02-04T18:42:26.774Z,97819.97
2023-02-04T18:44:55.405Z,97821.06
2023-02-04T18:47:36.362Z,97829.09
2023-02-04T18:50:28.621Z,97821.56
2023-02-04T18:53:00.740Z,97830.53
2023-02-04T18:55:38.294Z,97824.66
2023-02-04T18:58:23.921Z,97831.03
2023-02-04T19:00:58.197Z,97826.97
2023-02-04T19:03:28.407Z,97826.38
2023-02-04T19:06:00.240Z,97834.44
2023-02-04T19:08:43.930Z,97828.59
2023-02-04T19:11:35.249Z,97828.91
2023-02-04T19:14:12.199Z,97835.19
2023-02-04T19:16:41.393Z,97839.75
2023-02-04T19:19:34.247Z,97832.09
2023-02-04T19:22:13.148Z,97835.75
2023-02-04T19:24:40.206Z,97827.28
2023-02-04T19:27:31.817Z,97825.59
2023-02-04T19:30:01.440Z,97824.03
2023-02-04T19:32:40.627Z,97828.53
2023-02-04T19:35:20.030Z,97826.88
2023-02-04T19:38:00.967Z,97830.41
2023-02-04T19:40:37.402Z,97824.44
2023-02-04T19:43:20.973Z,97839.28
2023-02-04T19:45:51.172Z,97841.09
2023-02-04T19:48:36.884Z,97836.94
2023-02-04T19:51:21.519Z,97830.97
2023-02-04T19:53:52.495Z,97832.88
2023-02-04T19:56:33.872Z,97839.94
2023-02-04T19:59:33.656Z,97835.72
2023-02-04T20:02:28.245Z,97833.31
2023-02-04T20:04:55.294Z,97836.00
2023-02-04T20:07:25.054Z,97842.19
2023-02-04T20:10:17.439Z,97837.97
2023-02-04T20:12:44.459Z,97838.09
2023-02-04T20:15:20.931Z,97836.44
2023-02-04T20:17:49.831Z,97841.78
2023-02-04T20:20:31.364Z,97844.44
2023-02-04T20:23:15.439Z,97848.78
2023-02-04T20:25:46.076Z,97847.91
2023-02-04T20:28:22.387Z,97854.63
2023-02-04T20:30:52.264Z,97861.53
2023-02-04T20:33:31.625Z,97864.84
2023-02-04T20:36:27.311Z,97857.84
2023-02-04T20:39:17.627Z,97852.53
2023-02-04T20:41:44.725Z,97857.63
2023-02-04T20:44:26.519Z,97862.69
2023-02-04T20:47:12.255Z,97861.75
2023-02-04T20:49:43.043Z,97858.25
2023-02-04T20:52:44.010Z,97859.97
2023-02-04T20:55:13.846Z,97853.81
2023-02-04T20:57:40.988Z,97862.47
2023-02-04T21:00:26.283Z,97859.81
2023-02-04T21:02:53.485Z,97866.56
2023-02-04T21:05:27.241Z,97869.09
2023-02-04T21:07:58.453Z,97880.19
2023-02-04T21:10:25.435Z,97884.47
2023-02-04T21:12:52.514Z,97881.81
2023-02-04T21:15:19.581Z,97879.97
2023-02-04T21:17:46.555Z,97882.56
2023-02-04T21:20:13.537Z,97884.22
2023-02-04T21:22:40.524Z,97887.59
2023-02-04T21:25:08.154Z,97888.47
2023-02-04T21:27:35.862Z,97886.63
2023-02-04T21:30:02.868Z,97890.81
2023-02-04T21:32:29.993Z,97877.72
2023-02-04T21:34:57.156Z,97890.56
2023-02-04T21:37:24.220Z,97885.97
2023-02-04T21:39:51.347Z,97889.28
2023-02-04T21:42:18.465Z,97889.13
2023-02-04T21:44:45.556Z,97890.75
2023-02-04T21:47:13.713Z,97897.75
2023-02-04T21:49:43.010Z,97897.84
2023-02-04T21:52:10.456Z,97885.56
2023-02-04T21:54:37.440Z,97897.34
2023-02-04T21:57:04.725Z,97896.38
2023-02-04T21:59:31.829Z,97896.13
2023-02-04T22:01:58.888Z,97903.75
2023-02-04T22:04:25.945Z,97903.47
2023-02-04T22:06:52.899Z,97902.41
2023-02-04T22:09:20.035Z,97902.28
2023-02-04T22:11:48.539Z,97897.75
2023-02-04T22:14:15.675Z,97895.94
2023-02-04T22:16:42.745Z,97898.53
2023-02-04T22:19:09.883Z,97905.34
2023-02-04T22:21:37.569Z,97913.13
2023-02-04T22:24:05.065Z,97910.56
2023-02-04T22:26:32.551Z,97913.13
2023-02-04T22:28:59.689Z,97912.31
2023-02-04T22:31:26.785Z,97903.72
2023-02-04T22:33:54.049Z,97915.03
2023-02-04T22:36:21.230Z,97914.19
2023-02-04T22:38:48.489Z,97909.09
2023-02-04T22:41:15.573Z,97903.16
2023-02-04T22:43:42.654Z,97912.00
2023-02-04T22:46:09.934Z,97905.38
2023-02-04T22:48:37.118Z,97904.59
2023-02-04T22:51:04.211Z,97907.38
2023-02-04T22:53:31.225Z,97900.56
2023-02-04T22:55:58.262Z,97901.56
2023-02-04T22:58:25.328Z,97903.41
2023-02-04T23:00:52.509Z,97895.78
2023-02-04T23:03:19.489Z,97897.56
2023-02-04T23:05:48.286Z,97896.78
2023-02-04T23:08:15.779Z,97887.31
2023-02-04T23:10:42.735Z,97884.72
2023-02-04T23:13:10.267Z,97896.06
2023-02-04T23:15:39.018Z,97895.28
2023-02-04T23:18:06.145Z,97892.16
2023-02-04T23:20:33.560Z,97897.47
2023-02-04T23:23:00.808Z,97887.28
2023-02-04T23:25:28.080Z,97896.84
2023-02-04T23:27:55.479Z,97888.97
2023-02-04T23:30:24.438Z,97881.13
2023-02-04T23:32:51.960Z,97887.31
2023-02-04T23:35:19.070Z,97893.50
2023-02-04T23:37:46.128Z,97888.28
2023-02-04T23:40:13.197Z,97896.97
2023-02-04T23:42:40.354Z,97892.72
2023-02-04T23:45:07.976Z,97892.72
2023-02-04T23:47:35.082Z,97892.72
2023-02-04T23:50:02.491Z,97894.47
2023-02-04T23:52:29.734Z,97892.88
2023-02-04T23:54:56.813Z,97892.91
2023-02-04T23:57:24.289Z,97897.31
2023-02-04T23:59:51.517Z,97888.00
